sensor_id;sensor_type;location;lat;lon;timestamp;P1;durP1;ratioP1;P2;durP2;ratioP2
59308;SDS011;48433;53.016;-2.260;2023-08-17T00:00:14;9.48;;;4.30;;
59308;SDS011;48433;53.016;-2.260;2023-08-17T00:02:42;8.70;;;3.92;;
59308;SDS011;48433;53.016;-2.260;2023-08-17T00:05:09;8.82;;;4.13;;
59308;SDS011;48433;53.016;-2.260;2023-08-17T00:07:37;8.93;;;3.90;;
59308;SDS011;48433;53.016;-2.260;2023-08-17T00:10:05;24.80;;;5.43;;
59308;SDS011;48433;53.016;-2.260;2023-08-17T00:12:33;11.85;;;4.38;;
59308;SDS011;48433;53.016;-2.260;2023-08-17T00:15:00;9.35;;;4.00;;
59308;SDS011;48433;53.016;-2.260;2023-08-17T00:17:28;7.90;;;3.80;;
59308;SDS011;48433;53.016;-2.260;2023-08-17T00:19:57;13.60;;;4.70;;
59308;SDS011;48433;53.016;-2.260;2023-08-17T00:22:24;9.85;;;3.75;;
59308;SDS011;48433;53.016;-2.260;2023-08-17T00:24:52;9.98;;;4.35;;
59308;SDS011;48433;53.016;-2.260;2023-08-17T00:27:20;8.60;;;4.40;;
59308;SDS011;48433;53.016;-2.260;2023-08-17T00:29:47;10.20;;;5.43;;
59308;SDS011;48433;53.016;-2.260;2023-08-17T00:32:15;7.72;;;4.32;;
59308;SDS011;48433;53.016;-2.260;2023-08-17T00:34:44;7.78;;;4.05;;
59308;SDS011;48433;53.016;-2.260;2023-08-17T00:37:12;9.18;;;4.47;;
59308;SDS011;48433;53.016;-2.260;2023-08-17T00:39:40;8.35;;;4.10;;
59308;SDS011;48433;53.016;-2.260;2023-08-17T00:42:07;7.90;;;4.63;;
59308;SDS011;48433;53.016;-2.260;2023-08-17T00:44:35;11.00;;;5.05;;
59308;SDS011;48433;53.016;-2.260;2023-08-17T00:47:03;8.70;;;4.80;;
59308;SDS011;48433;53.016;-2.260;2023-08-17T00:49:32;9.82;;;4.88;;
59308;SDS011;48433;53.016;-2.260;2023-08-17T00:52:00;9.27;;;4.65;;
59308;SDS011;48433;53.016;-2.260;2023-08-17T00:54:28;6.97;;;4.07;;
59308;SDS011;48433;53.016;-2.260;2023-08-17T00:56:57;9.57;;;4.50;;
59308;SDS011;48433;53.016;-2.260;2023-08-17T00:59:26;9.93;;;4.60;;
59308;SDS011;48433;53.016;-2.260;2023-08-17T01:02:02;9.73;;;4.85;;
59308;SDS011;48433;53.016;-2.260;2023-08-17T01:04:31;12.80;;;4.60;;
59308;SDS011;48433;53.016;-2.260;2023-08-17T01:06:59;12.52;;;5.22;;
59308;SDS011;48433;53.016;-2.260;2023-08-17T01:09:26;12.88;;;5.55;;
59308;SDS011;48433;53.016;-2.260;2023-08-17T01:12:02;10.57;;;5.55;;
59308;SDS011;48433;53.016;-2.260;2023-08-17T01:14:52;9.45;;;5.18;;
59308;SDS011;48433;53.016;-2.260;2023-08-17T01:17:48;10.55;;;5.25;;
59308;SDS011;48433;53.016;-2.260;2023-08-17T01:20:21;15.40;;;6.28;;
59308;SDS011;48433;53.016;-2.260;2023-08-17T01:22:51;11.75;;;6.20;;
59308;SDS011;48433;53.016;-2.260;2023-08-17T01:25:24;9.77;;;5.30;;
59308;SDS011;48433;53.016;-2.260;2023-08-17T01:27:51;14.02;;;6.80;;
59308;SDS011;48433;53.016;-2.260;2023-08-17T01:30:19;10.35;;;6.20;;
59308;SDS011;48433;53.016;-2.260;2023-08-17T01:32:52;11.15;;;5.80;;
59308;SDS011;48433;53.016;-2.260;2023-08-17T01:35:30;11.82;;;6.70;;
59308;SDS011;48433;53.016;-2.260;2023-08-17T01:38:07;11.50;;;6.20;;
59308;SDS011;48433;53.016;-2.260;2023-08-17T01:40:39;12.00;;;6.35;;
59308;SDS011;48433;53.016;-2.260;2023-08-17T01:43:09;12.65;;;6.28;;
59308;SDS011;48433;53.016;-2.260;2023-08-17T01:45:38;10.13;;;6.13;;
59308;SDS011;48433;53.016;-2.260;2023-08-17T01:48:05;10.32;;;6.20;;
59308;SDS011;48433;53.016;-2.260;2023-08-17T01:50:33;14.40;;;6.13;;
59308;SDS011;48433;53.016;-2.260;2023-08-17T01:53:01;12.10;;;6.28;;
59308;SDS011;48433;53.016;-2.260;2023-08-17T01:55:29;14.05;;;7.05;;
59308;SDS011;48433;53.016;-2.260;2023-08-17T01:57:56;12.15;;;6.32;;
59308;SDS011;48433;53.016;-2.260;2023-08-17T02:00:24;14.45;;;6.25;;
59308;SDS011;48433;53.016;-2.260;2023-08-17T02:02:52;10.57;;;6.05;;
59308;SDS011;48433;53.016;-2.260;2023-08-17T02:05:20;12.27;;;5.93;;
59308;SDS011;48433;53.016;-2.260;2023-08-17T02:07:47;17.95;;;6.40;;
59308;SDS011;48433;53.016;-2.260;2023-08-17T02:10:15;10.23;;;5.82;;
59308;SDS011;48433;53.016;-2.260;2023-08-17T02:12:43;17.88;;;7.05;;
59308;SDS011;48433;53.016;-2.260;2023-08-17T02:15:11;12.77;;;6.20;;
59308;SDS011;48433;53.016;-2.260;2023-08-17T02:17:38;12.75;;;5.78;;
59308;SDS011;48433;53.016;-2.260;2023-08-17T02:20:06;9.73;;;5.57;;
59308;SDS011;48433;53.016;-2.260;2023-08-17T02:22:35;8.75;;;5.68;;
59308;SDS011;48433;53.016;-2.260;2023-08-17T02:25:04;17.50;;;6.78;;
59308;SDS011;48433;53.016;-2.260;2023-08-17T02:27:32;12.80;;;5.40;;
59308;SDS011;48433;53.016;-2.260;2023-08-17T02:29:59;14.27;;;6.80;;
59308;SDS011;48433;53.016;-2.260;2023-08-17T02:32:28;12.38;;;5.95;;
59308;SDS011;48433;53.016;-2.260;2023-08-17T02:34:55;12.23;;;6.07;;
59308;SDS011;48433;53.016;-2.260;2023-08-17T02:37:23;16.02;;;6.97;;
59308;SDS011;48433;53.016;-2.260;2023-08-17T02:39:51;13.57;;;6.45;;
59308;SDS011;48433;53.016;-2.260;2023-08-17T02:42:19;10.27;;;6.63;;
59308;SDS011;48433;53.016;-2.260;2023-08-17T02:44:47;13.70;;;7.00;;
59308;SDS011;48433;53.016;-2.260;2023-08-17T02:47:14;17.88;;;7.05;;
59308;SDS011;48433;53.016;-2.260;2023-08-17T02:49:42;12.73;;;7.07;;
59308;SDS011;48433;53.016;-2.260;2023-08-17T02:52:09;11.15;;;6.50;;
59308;SDS011;48433;53.016;-2.260;2023-08-17T02:54:38;10.88;;;6.68;;
59308;SDS011;48433;53.016;-2.260;2023-08-17T02:57:05;13.65;;;7.03;;
59308;SDS011;48433;53.016;-2.260;2023-08-17T02:59:33;15.05;;;6.25;;
59308;SDS011;48433;53.016;-2.260;2023-08-17T03:02:00;13.98;;;7.03;;
59308;SDS011;48433;53.016;-2.260;2023-08-17T03:04:28;11.75;;;7.75;;
59308;SDS011;48433;53.016;-2.260;2023-08-17T03:06:55;13.93;;;6.18;;
59308;SDS011;48433;53.016;-2.260;2023-08-17T03:09:23;11.82;;;6.88;;
59308;SDS011;48433;53.016;-2.260;2023-08-17T03:11:51;17.55;;;7.22;;
59308;SDS011;48433;53.016;-2.260;2023-08-17T03:14:20;13.20;;;7.68;;
59308;SDS011;48433;53.016;-2.260;2023-08-17T03:16:47;18.67;;;7.93;;
59308;SDS011;48433;53.016;-2.260;2023-08-17T03:19:15;12.65;;;7.57;;
59308;SDS011;48433;53.016;-2.260;2023-08-17T03:21:43;12.30;;;7.60;;
59308;SDS011;48433;53.016;-2.260;2023-08-17T03:24:11;18.05;;;8.75;;
59308;SDS011;48433;53.016;-2.260;2023-08-17T03:26:38;14.05;;;7.82;;
59308;SDS011;48433;53.016;-2.260;2023-08-17T03:29:07;16.23;;;7.80;;
59308;SDS011;48433;53.016;-2.260;2023-08-17T03:31:37;14.20;;;7.45;;
59308;SDS011;48433;53.016;-2.260;2023-08-17T03:34:07;12.15;;;8.15;;
59308;SDS011;48433;53.016;-2.260;2023-08-17T03:36:35;14.02;;;7.97;;
59308;SDS011;48433;53.016;-2.260;2023-08-17T03:39:02;15.48;;;8.25;;
59308;SDS011;48433;53.016;-2.260;2023-08-17T03:41:30;17.90;;;8.88;;
59308;SDS011;48433;53.016;-2.260;2023-08-17T03:43:58;17.65;;;9.27;;
59308;SDS011;48433;53.016;-2.260;2023-08-17T03:46:26;12.98;;;8.65;;
59308;SDS011;48433;53.016;-2.260;2023-08-17T03:48:54;17.40;;;9.00;;
59308;SDS011;48433;53.016;-2.260;2023-08-17T03:51:21;20.25;;;8.98;;
59308;SDS011;48433;53.016;-2.260;2023-08-17T03:53:50;11.95;;;8.60;;
59308;SDS011;48433;53.016;-2.260;2023-08-17T03:56:17;17.63;;;8.70;;
59308;SDS011;48433;53.016;-2.260;2023-08-17T03:58:45;14.43;;;9.35;;
59308;SDS011;48433;53.016;-2.260;2023-08-17T04:01:13;13.82;;;8.70;;
59308;SDS011;48433;53.016;-2.260;2023-08-17T04:03:42;13.27;;;8.88;;
59308;SDS011;48433;53.016;-2.260;2023-08-17T04:06:09;15.40;;;8.95;;
59308;SDS011;48433;53.016;-2.260;2023-08-17T04:08:37;16.13;;;9.05;;
59308;SDS011;48433;53.016;-2.260;2023-08-17T04:11:05;19.52;;;9.25;;
59308;SDS011;48433;53.016;-2.260;2023-08-17T04:13:33;19.75;;;9.75;;
59308;SDS011;48433;53.016;-2.260;2023-08-17T04:16:01;17.50;;;9.57;;
59308;SDS011;48433;53.016;-2.260;2023-08-17T04:18:28;14.57;;;9.25;;
59308;SDS011;48433;53.016;-2.260;2023-08-17T04:20:56;13.50;;;8.95;;
59308;SDS011;48433;53.016;-2.260;2023-08-17T04:23:25;19.75;;;9.05;;
59308;SDS011;48433;53.016;-2.260;2023-08-17T04:25:53;17.17;;;9.48;;
59308;SDS011;48433;53.016;-2.260;2023-08-17T04:28:22;13.93;;;9.07;;
59308;SDS011;48433;53.016;-2.260;2023-08-17T04:30:52;16.17;;;9.30;;
59308;SDS011;48433;53.016;-2.260;2023-08-17T04:33:19;17.88;;;10.02;;
59308;SDS011;48433;53.016;-2.260;2023-08-17T04:35:47;19.15;;;9.77;;
59308;SDS011;48433;53.016;-2.260;2023-08-17T04:38:16;15.75;;;9.70;;
59308;SDS011;48433;53.016;-2.260;2023-08-17T04:40:44;13.90;;;9.27;;
59308;SDS011;48433;53.016;-2.260;2023-08-17T04:43:13;16.70;;;9.65;;
59308;SDS011;48433;53.016;-2.260;2023-08-17T04:45:41;16.45;;;10.43;;
59308;SDS011;48433;53.016;-2.260;2023-08-17T04:48:08;17.98;;;9.95;;
59308;SDS011;48433;53.016;-2.260;2023-08-17T04:50:36;18.27;;;10.25;;
59308;SDS011;48433;53.016;-2.260;2023-08-17T04:53:04;18.38;;;10.20;;
59308;SDS011;48433;53.016;-2.260;2023-08-17T04:55:31;17.27;;;10.00;;
59308;SDS011;48433;53.016;-2.260;2023-08-17T04:58:00;26.65;;;12.20;;
59308;SDS011;48433;53.016;-2.260;2023-08-17T05:00:28;19.02;;;10.73;;
59308;SDS011;48433;53.016;-2.260;2023-08-17T05:02:56;17.45;;;10.77;;
59308;SDS011;48433;53.016;-2.260;2023-08-17T05:05:29;22.83;;;10.50;;
59308;SDS011;48433;53.016;-2.260;2023-08-17T05:07:57;18.65;;;10.90;;
59308;SDS011;48433;53.016;-2.260;2023-08-17T05:10:26;14.18;;;10.13;;
59308;SDS011;48433;53.016;-2.260;2023-08-17T05:12:53;17.95;;;11.38;;
59308;SDS011;48433;53.016;-2.260;2023-08-17T05:15:22;17.40;;;9.75;;
59308;SDS011;48433;53.016;-2.260;2023-08-17T05:17:50;13.25;;;9.35;;
59308;SDS011;48433;53.016;-2.260;2023-08-17T05:20:18;17.20;;;10.52;;
59308;SDS011;48433;53.016;-2.260;2023-08-17T05:22:47;26.13;;;11.52;;
59308;SDS011;48433;53.016;-2.260;2023-08-17T05:25:15;17.17;;;9.82;;
59308;SDS011;48433;53.016;-2.260;2023-08-17T05:27:45;17.40;;;10.02;;
59308;SDS011;48433;53.016;-2.260;2023-08-17T05:30:13;17.55;;;9.73;;
59308;SDS011;48433;53.016;-2.260;2023-08-17T05:32:41;16.20;;;9.57;;
59308;SDS011;48433;53.016;-2.260;2023-08-17T05:35:09;17.48;;;10.20;;
59308;SDS011;48433;53.016;-2.260;2023-08-17T05:37:37;16.38;;;9.63;;
59308;SDS011;48433;53.016;-2.260;2023-08-17T05:40:05;17.85;;;9.95;;
59308;SDS011;48433;53.016;-2.260;2023-08-17T05:42:36;13.50;;;9.43;;
59308;SDS011;48433;53.016;-2.260;2023-08-17T05:45:03;16.90;;;8.93;;
59308;SDS011;48433;53.016;-2.260;2023-08-17T05:47:32;14.13;;;8.38;;
59308;SDS011;48433;53.016;-2.260;2023-08-17T05:50:00;19.42;;;9.07;;
59308;SDS011;48433;53.016;-2.260;2023-08-17T05:52:28;16.63;;;9.68;;
59308;SDS011;48433;53.016;-2.260;2023-08-17T05:54:55;13.32;;;7.97;;
59308;SDS011;48433;53.016;-2.260;2023-08-17T05:57:23;16.63;;;8.80;;
59308;SDS011;48433;53.016;-2.260;2023-08-17T05:59:51;14.52;;;8.88;;
59308;SDS011;48433;53.016;-2.260;2023-08-17T06:02:19;15.18;;;9.00;;
59308;SDS011;48433;53.016;-2.260;2023-08-17T06:04:47;14.70;;;8.32;;
59308;SDS011;48433;53.016;-2.260;2023-08-17T06:07:16;13.70;;;7.82;;
59308;SDS011;48433;53.016;-2.260;2023-08-17T06:09:48;13.00;;;8.85;;
59308;SDS011;48433;53.016;-2.260;2023-08-17T06:12:16;17.45;;;9.30;;
59308;SDS011;48433;53.016;-2.260;2023-08-17T06:14:46;18.60;;;9.57;;
59308;SDS011;48433;53.016;-2.260;2023-08-17T06:17:13;14.77;;;8.25;;
59308;SDS011;48433;53.016;-2.260;2023-08-17T06:19:41;20.58;;;9.32;;
59308;SDS011;48433;53.016;-2.260;2023-08-17T06:22:09;14.25;;;8.02;;
59308;SDS011;48433;53.016;-2.260;2023-08-17T06:24:37;18.92;;;8.18;;
59308;SDS011;48433;53.016;-2.260;2023-08-17T06:27:05;15.40;;;7.97;;
59308;SDS011;48433;53.016;-2.260;2023-08-17T06:29:33;16.65;;;8.43;;
59308;SDS011;48433;53.016;-2.260;2023-08-17T06:32:00;13.57;;;8.45;;
59308;SDS011;48433;53.016;-2.260;2023-08-17T06:34:28;15.57;;;8.23;;
59308;SDS011;48433;53.016;-2.260;2023-08-17T06:36:56;14.77;;;7.78;;
59308;SDS011;48433;53.016;-2.260;2023-08-17T06:39:25;33.88;;;9.00;;
59308;SDS011;48433;53.016;-2.260;2023-08-17T06:41:53;20.27;;;7.95;;
59308;SDS011;48433;53.016;-2.260;2023-08-17T06:44:21;14.55;;;7.88;;
59308;SDS011;48433;53.016;-2.260;2023-08-17T06:46:49;13.05;;;7.85;;
59308;SDS011;48433;53.016;-2.260;2023-08-17T06:49:16;15.25;;;8.38;;
59308;SDS011;48433;53.016;-2.260;2023-08-17T06:51:44;15.48;;;8.27;;
59308;SDS011;48433;53.016;-2.260;2023-08-17T06:54:11;16.13;;;8.43;;
59308;SDS011;48433;53.016;-2.260;2023-08-17T06:56:39;17.88;;;8.60;;
59308;SDS011;48433;53.016;-2.260;2023-08-17T06:59:07;15.73;;;7.88;;
59308;SDS011;48433;53.016;-2.260;2023-08-17T07:01:35;18.80;;;9.05;;
59308;SDS011;48433;53.016;-2.260;2023-08-17T07:04:03;18.70;;;9.45;;
59308;SDS011;48433;53.016;-2.260;2023-08-17T07:06:31;21.13;;;8.45;;
59308;SDS011;48433;53.016;-2.260;2023-08-17T07:08:59;17.75;;;9.07;;
59308;SDS011;48433;53.016;-2.260;2023-08-17T07:11:27;17.20;;;8.35;;
59308;SDS011;48433;53.016;-2.260;2023-08-17T07:13:54;19.48;;;8.93;;
59308;SDS011;48433;53.016;-2.260;2023-08-17T07:16:22;14.65;;;8.75;;
59308;SDS011;48433;53.016;-2.260;2023-08-17T07:18:50;13.07;;;7.82;;
59308;SDS011;48433;53.016;-2.260;2023-08-17T07:21:17;17.02;;;7.97;;
59308;SDS011;48433;53.016;-2.260;2023-08-17T07:23:45;14.88;;;8.55;;
59308;SDS011;48433;53.016;-2.260;2023-08-17T07:26:14;31.35;;;10.07;;
59308;SDS011;48433;53.016;-2.260;2023-08-17T07:28:42;17.52;;;7.47;;
59308;SDS011;48433;53.016;-2.260;2023-08-17T07:31:09;18.83;;;8.77;;
59308;SDS011;48433;53.016;-2.260;2023-08-17T07:33:37;18.45;;;8.52;;
59308;SDS011;48433;53.016;-2.260;2023-08-17T07:36:05;13.57;;;7.43;;
59308;SDS011;48433;53.016;-2.260;2023-08-17T07:38:33;15.80;;;7.93;;
59308;SDS011;48433;53.016;-2.260;2023-08-17T07:41:00;17.60;;;7.78;;
59308;SDS011;48433;53.016;-2.260;2023-08-17T07:43:28;12.13;;;6.97;;
59308;SDS011;48433;53.016;-2.260;2023-08-17T07:45:56;13.00;;;7.07;;
59308;SDS011;48433;53.016;-2.260;2023-08-17T07:48:24;15.98;;;7.38;;
59308;SDS011;48433;53.016;-2.260;2023-08-17T07:50:52;14.55;;;6.85;;
59308;SDS011;48433;53.016;-2.260;2023-08-17T07:53:20;12.73;;;6.88;;
59308;SDS011;48433;53.016;-2.260;2023-08-17T07:55:48;13.65;;;6.93;;
59308;SDS011;48433;53.016;-2.260;2023-08-17T07:58:19;28.88;;;7.25;;
59308;SDS011;48433;53.016;-2.260;2023-08-17T08:00:46;14.00;;;6.32;;
59308;SDS011;48433;53.016;-2.260;2023-08-17T08:03:14;18.05;;;7.32;;
59308;SDS011;48433;53.016;-2.260;2023-08-17T08:05:42;12.18;;;5.70;;
59308;SDS011;48433;53.016;-2.260;2023-08-17T08:08:10;20.23;;;6.72;;
59308;SDS011;48433;53.016;-2.260;2023-08-17T08:10:37;11.60;;;6.10;;
59308;SDS011;48433;53.016;-2.260;2023-08-17T08:13:05;17.60;;;6.45;;
59308;SDS011;48433;53.016;-2.260;2023-08-17T08:15:33;13.25;;;6.32;;
59308;SDS011;48433;53.016;-2.260;2023-08-17T08:18:00;12.88;;;6.20;;
59308;SDS011;48433;53.016;-2.260;2023-08-17T08:20:28;14.75;;;5.63;;
59308;SDS011;48433;53.016;-2.260;2023-08-17T08:22:56;12.88;;;5.70;;
59308;SDS011;48433;53.016;-2.260;2023-08-17T08:25:24;12.52;;;5.30;;
59308;SDS011;48433;53.016;-2.260;2023-08-17T08:27:51;13.93;;;5.72;;
59308;SDS011;48433;53.016;-2.260;2023-08-17T08:30:19;16.45;;;5.90;;
59308;SDS011;48433;53.016;-2.260;2023-08-17T08:32:47;13.15;;;5.45;;
59308;SDS011;48433;53.016;-2.260;2023-08-17T08:35:14;14.27;;;5.60;;
59308;SDS011;48433;53.016;-2.260;2023-08-17T08:37:42;11.65;;;5.55;;
59308;SDS011;48433;53.016;-2.260;2023-08-17T08:40:10;12.63;;;5.90;;
59308;SDS011;48433;53.016;-2.260;2023-08-17T08:42:42;14.63;;;5.93;;
59308;SDS011;48433;53.016;-2.260;2023-08-17T08:45:10;14.25;;;6.20;;
59308;SDS011;48433;53.016;-2.260;2023-08-17T08:47:37;11.85;;;6.13;;
59308;SDS011;48433;53.016;-2.260;2023-08-17T08:50:06;14.07;;;5.97;;
59308;SDS011;48433;53.016;-2.260;2023-08-17T08:52:36;13.15;;;5.75;;
59308;SDS011;48433;53.016;-2.260;2023-08-17T08:55:15;18.02;;;6.22;;
59308;SDS011;48433;53.016;-2.260;2023-08-17T08:57:45;12.45;;;6.10;;
59308;SDS011;48433;53.016;-2.260;2023-08-17T09:00:18;10.98;;;6.10;;
59308;SDS011;48433;53.016;-2.260;2023-08-17T09:02:46;11.80;;;5.78;;
59308;SDS011;48433;53.016;-2.260;2023-08-17T09:05:14;13.35;;;6.40;;
59308;SDS011;48433;53.016;-2.260;2023-08-17T09:07:42;12.82;;;6.20;;
59308;SDS011;48433;53.016;-2.260;2023-08-17T09:10:10;11.68;;;6.15;;
59308;SDS011;48433;53.016;-2.260;2023-08-17T09:12:39;14.18;;;6.13;;
59308;SDS011;48433;53.016;-2.260;2023-08-17T09:15:08;16.67;;;6.15;;
59308;SDS011;48433;53.016;-2.260;2023-08-17T09:17:36;13.60;;;5.40;;
59308;SDS011;48433;53.016;-2.260;2023-08-17T09:20:04;11.43;;;5.63;;
59308;SDS011;48433;53.016;-2.260;2023-08-17T09:22:38;14.18;;;5.78;;
59308;SDS011;48433;53.016;-2.260;2023-08-17T09:25:07;9.52;;;4.65;;
59308;SDS011;48433;53.016;-2.260;2023-08-17T09:27:37;15.68;;;6.07;;
59308;SDS011;48433;53.016;-2.260;2023-08-17T09:30:06;11.45;;;5.00;;
59308;SDS011;48433;53.016;-2.260;2023-08-17T09:32:36;11.38;;;6.20;;
59308;SDS011;48433;53.016;-2.260;2023-08-17T09:35:04;14.38;;;5.70;;
59308;SDS011;48433;53.016;-2.260;2023-08-17T09:37:33;11.30;;;4.30;;
59308;SDS011;48433;53.016;-2.260;2023-08-17T09:40:01;10.27;;;4.30;;
59308;SDS011;48433;53.016;-2.260;2023-08-17T09:42:30;13.63;;;5.72;;
59308;SDS011;48433;53.016;-2.260;2023-08-17T09:45:02;11.50;;;4.80;;
59308;SDS011;48433;53.016;-2.260;2023-08-17T09:47:30;10.55;;;4.82;;
59308;SDS011;48433;53.016;-2.260;2023-08-17T09:49:58;11.02;;;4.85;;
59308;SDS011;48433;53.016;-2.260;2023-08-17T09:52:27;12.55;;;4.65;;
59308;SDS011;48433;53.016;-2.260;2023-08-17T09:54:55;12.23;;;4.85;;
59308;SDS011;48433;53.016;-2.260;2023-08-17T09:57:24;12.43;;;4.28;;
59308;SDS011;48433;53.016;-2.260;2023-08-17T09:59:52;8.23;;;3.83;;
59308;SDS011;48433;53.016;-2.260;2023-08-17T10:02:23;12.75;;;4.30;;
59308;SDS011;48433;53.016;-2.260;2023-08-17T10:04:52;11.57;;;4.18;;
59308;SDS011;48433;53.016;-2.260;2023-08-17T10:07:21;12.95;;;4.40;;
59308;SDS011;48433;53.016;-2.260;2023-08-17T10:10:02;9.57;;;4.38;;
59308;SDS011;48433;53.016;-2.260;2023-08-17T10:12:39;11.05;;;4.30;;
59308;SDS011;48433;53.016;-2.260;2023-08-17T10:15:15;11.98;;;4.18;;
59308;SDS011;48433;53.016;-2.260;2023-08-17T10:17:57;8.98;;;4.30;;
59308;SDS011;48433;53.016;-2.260;2023-08-17T10:20:29;10.57;;;3.90;;
59308;SDS011;48433;53.016;-2.260;2023-08-17T10:23:02;8.52;;;3.60;;
59308;SDS011;48433;53.016;-2.260;2023-08-17T10:25:51;13.45;;;3.40;;
59308;SDS011;48433;53.016;-2.260;2023-08-17T10:28:21;9.27;;;3.53;;
59308;SDS011;48433;53.016;-2.260;2023-08-17T10:30:50;12.45;;;3.75;;
59308;SDS011;48433;53.016;-2.260;2023-08-17T10:33:18;7.88;;;3.25;;
59308;SDS011;48433;53.016;-2.260;2023-08-17T10:35:47;12.35;;;3.70;;
59308;SDS011;48433;53.016;-2.260;2023-08-17T10:38:15;9.50;;;3.60;;
59308;SDS011;48433;53.016;-2.260;2023-08-17T10:40:44;9.63;;;3.50;;
59308;SDS011;48433;53.016;-2.260;2023-08-17T10:43:12;14.27;;;3.53;;
59308;SDS011;48433;53.016;-2.260;2023-08-17T10:45:40;10.55;;;3.40;;
59308;SDS011;48433;53.016;-2.260;2023-08-17T10:50:58;9.60;;;2.55;;
59308;SDS011;48433;53.016;-2.260;2023-08-17T10:53:36;7.47;;;2.65;;
59308;SDS011;48433;53.016;-2.260;2023-08-17T10:56:06;14.70;;;3.40;;
59308;SDS011;48433;53.016;-2.260;2023-08-17T10:58:37;11.68;;;2.70;;
59308;SDS011;48433;53.016;-2.260;2023-08-17T11:01:05;11.45;;;2.53;;
59308;SDS011;48433;53.016;-2.260;2023-08-17T11:03:35;9.13;;;2.50;;
59308;SDS011;48433;53.016;-2.260;2023-08-17T11:06:28;9.75;;;2.90;;
59308;SDS011;48433;53.016;-2.260;2023-08-17T11:08:55;8.88;;;2.67;;
59308;SDS011;48433;53.016;-2.260;2023-08-17T11:11:23;9.55;;;2.90;;
59308;SDS011;48433;53.016;-2.260;2023-08-17T11:13:52;13.13;;;2.40;;
59308;SDS011;48433;53.016;-2.260;2023-08-17T11:16:23;13.95;;;3.47;;
59308;SDS011;48433;53.016;-2.260;2023-08-17T11:18:51;7.10;;;2.65;;
59308;SDS011;48433;53.016;-2.260;2023-08-17T11:21:19;11.38;;;2.40;;
59308;SDS011;48433;53.016;-2.260;2023-08-17T11:23:49;9.52;;;2.28;;
59308;SDS011;48433;53.016;-2.260;2023-08-17T11:26:17;5.78;;;2.50;;
59308;SDS011;48433;53.016;-2.260;2023-08-17T11:28:45;7.20;;;2.35;;
59308;SDS011;48433;53.016;-2.260;2023-08-17T11:31:14;7.95;;;2.30;;
59308;SDS011;48433;53.016;-2.260;2023-08-17T11:33:45;7.95;;;2.72;;
59308;SDS011;48433;53.016;-2.260;2023-08-17T11:36:24;6.45;;;1.98;;
59308;SDS011;48433;53.016;-2.260;2023-08-17T11:38:52;5.75;;;2.00;;
59308;SDS011;48433;53.016;-2.260;2023-08-17T11:41:20;13.55;;;2.63;;
59308;SDS011;48433;53.016;-2.260;2023-08-17T11:43:48;6.10;;;1.70;;
59308;SDS011;48433;53.016;-2.260;2023-08-17T11:46:17;6.15;;;1.58;;
59308;SDS011;48433;53.016;-2.260;2023-08-17T11:48:50;7.25;;;1.90;;
59308;SDS011;48433;53.016;-2.260;2023-08-17T11:51:30;5.88;;;1.52;;
59308;SDS011;48433;53.016;-2.260;2023-08-17T11:53:59;4.88;;;1.75;;
59308;SDS011;48433;53.016;-2.260;2023-08-17T11:56:27;8.30;;;2.70;;
59308;SDS011;48433;53.016;-2.260;2023-08-17T11:58:55;14.30;;;1.90;;
59308;SDS011;48433;53.016;-2.260;2023-08-17T12:01:26;6.97;;;2.33;;
59308;SDS011;48433;53.016;-2.260;2023-08-17T12:03:53;8.48;;;2.00;;
59308;SDS011;48433;53.016;-2.260;2023-08-17T12:06:24;8.25;;;1.75;;
59308;SDS011;48433;53.016;-2.260;2023-08-17T12:08:52;7.93;;;1.85;;
59308;SDS011;48433;53.016;-2.260;2023-08-17T12:11:20;6.55;;;2.40;;
59308;SDS011;48433;53.016;-2.260;2023-08-17T12:13:52;7.15;;;1.90;;
59308;SDS011;48433;53.016;-2.260;2023-08-17T12:16:20;7.78;;;1.90;;
59308;SDS011;48433;53.016;-2.260;2023-08-17T12:18:50;6.57;;;2.15;;
59308;SDS011;48433;53.016;-2.260;2023-08-17T12:21:19;6.30;;;1.85;;
59308;SDS011;48433;53.016;-2.260;2023-08-17T12:23:49;9.75;;;2.20;;
59308;SDS011;48433;53.016;-2.260;2023-08-17T12:26:20;7.55;;;2.10;;
59308;SDS011;48433;53.016;-2.260;2023-08-17T12:28:48;6.22;;;2.10;;
59308;SDS011;48433;53.016;-2.260;2023-08-17T12:31:23;9.40;;;2.15;;
59308;SDS011;48433;53.016;-2.260;2023-08-17T12:33:51;8.05;;;2.17;;
59308;SDS011;48433;53.016;-2.260;2023-08-17T12:36:19;8.18;;;1.83;;
59308;SDS011;48433;53.016;-2.260;2023-08-17T12:38:48;6.85;;;1.75;;
59308;SDS011;48433;53.016;-2.260;2023-08-17T12:41:16;6.97;;;2.13;;
59308;SDS011;48433;53.016;-2.260;2023-08-17T12:43:45;5.68;;;1.52;;
59308;SDS011;48433;53.016;-2.260;2023-08-17T12:46:14;9.13;;;2.00;;
59308;SDS011;48433;53.016;-2.260;2023-08-17T12:48:42;7.25;;;1.80;;
59308;SDS011;48433;53.016;-2.260;2023-08-17T12:51:10;5.35;;;1.55;;
59308;SDS011;48433;53.016;-2.260;2023-08-17T12:53:38;8.50;;;1.90;;
59308;SDS011;48433;53.016;-2.260;2023-08-17T12:56:05;8.98;;;2.17;;
59308;SDS011;48433;53.016;-2.260;2023-08-17T12:58:33;5.28;;;1.90;;
59308;SDS011;48433;53.016;-2.260;2023-08-17T13:01:02;7.90;;;1.85;;
59308;SDS011;48433;53.016;-2.260;2023-08-17T13:03:30;4.65;;;1.45;;
59308;SDS011;48433;53.016;-2.260;2023-08-17T13:05:57;6.40;;;1.75;;
59308;SDS011;48433;53.016;-2.260;2023-08-17T13:08:25;9.68;;;2.08;;
59308;SDS011;48433;53.016;-2.260;2023-08-17T13:10:53;8.85;;;2.13;;
59308;SDS011;48433;53.016;-2.260;2023-08-17T13:13:21;8.90;;;1.95;;
59308;SDS011;48433;53.016;-2.260;2023-08-17T13:15:48;9.13;;;2.15;;
59308;SDS011;48433;53.016;-2.260;2023-08-17T13:18:16;4.57;;;1.67;;
59308;SDS011;48433;53.016;-2.260;2023-08-17T13:20:44;5.45;;;1.50;;
59308;SDS011;48433;53.016;-2.260;2023-08-17T13:23:12;6.32;;;1.55;;
59308;SDS011;48433;53.016;-2.260;2023-08-17T13:25:40;6.55;;;1.73;;
59308;SDS011;48433;53.016;-2.260;2023-08-17T13:28:07;8.63;;;1.63;;
59308;SDS011;48433;53.016;-2.260;2023-08-17T13:30:35;10.00;;;1.83;;
59308;SDS011;48433;53.016;-2.260;2023-08-17T13:33:04;9.07;;;2.58;;
59308;SDS011;48433;53.016;-2.260;2023-08-17T13:35:35;11.98;;;2.00;;
59308;SDS011;48433;53.016;-2.260;2023-08-17T13:38:03;4.63;;;1.52;;
59308;SDS011;48433;53.016;-2.260;2023-08-17T13:40:31;8.90;;;2.20;;
59308;SDS011;48433;53.016;-2.260;2023-08-17T13:43:01;6.30;;;1.75;;
59308;SDS011;48433;53.016;-2.260;2023-08-17T13:45:30;6.38;;;1.65;;
59308;SDS011;48433;53.016;-2.260;2023-08-17T13:47:57;7.53;;;2.10;;
59308;SDS011;48433;53.016;-2.260;2023-08-17T13:50:25;5.70;;;1.67;;
59308;SDS011;48433;53.016;-2.260;2023-08-17T13:52:53;5.18;;;1.70;;
59308;SDS011;48433;53.016;-2.260;2023-08-17T13:55:21;7.18;;;1.90;;
59308;SDS011;48433;53.016;-2.260;2023-08-17T13:57:48;9.95;;;2.17;;
59308;SDS011;48433;53.016;-2.260;2023-08-17T14:00:16;7.85;;;1.88;;
59308;SDS011;48433;53.016;-2.260;2023-08-17T14:02:44;5.03;;;1.60;;
59308;SDS011;48433;53.016;-2.260;2023-08-17T14:05:12;6.15;;;1.98;;
59308;SDS011;48433;53.016;-2.260;2023-08-17T14:07:40;5.85;;;1.85;;
59308;SDS011;48433;53.016;-2.260;2023-08-17T14:10:09;5.43;;;1.52;;
59308;SDS011;48433;53.016;-2.260;2023-08-17T14:12:51;11.80;;;1.75;;
59308;SDS011;48433;53.016;-2.260;2023-08-17T14:15:18;6.25;;;1.85;;
59308;SDS011;48433;53.016;-2.260;2023-08-17T14:17:46;4.78;;;1.60;;
59308;SDS011;48433;53.016;-2.260;2023-08-17T14:20:14;8.75;;;1.90;;
59308;SDS011;48433;53.016;-2.260;2023-08-17T14:22:42;7.20;;;1.90;;
59308;SDS011;48433;53.016;-2.260;2023-08-17T14:25:10;6.03;;;1.50;;
59308;SDS011;48433;53.016;-2.260;2023-08-17T14:27:37;8.15;;;2.05;;
59308;SDS011;48433;53.016;-2.260;2023-08-17T14:30:05;6.90;;;1.95;;
59308;SDS011;48433;53.016;-2.260;2023-08-17T14:32:33;4.97;;;1.58;;
59308;SDS011;48433;53.016;-2.260;2023-08-17T14:35:02;5.85;;;1.40;;
59308;SDS011;48433;53.016;-2.260;2023-08-17T14:37:30;7.95;;;1.58;;